createdAt,value
2022-12-11T00:00:48.602Z,25.20
2022-12-11T00:03:17.105Z,25.48
2022-12-11T00:05:44.530Z,25.30
2022-12-11T00:08:11.268Z,27.27
2022-12-11T00:10:38.295Z,26.55
2022-12-11T00:13:05.394Z,25.25
2022-12-11T00:15:31.940Z,26.92
2022-12-11T00:17:58.605Z,27.58
2022-12-11T00:20:25.371Z,27.40
2022-12-11T00:22:51.852Z,27.30
2022-12-11T00:25:18.386Z,26.38
2022-12-11T00:27:46.715Z,27.17
2022-12-11T00:30:14.220Z,27.70
2022-12-11T00:32:40.793Z,27.58
2022-12-11T00:35:07.718Z,24.67
2022-12-11T00:37:34.503Z,26.38
2022-12-11T00:40:01.019Z,26.20
2022-12-11T00:42:27.678Z,24.95
2022-12-11T00:44:56.023Z,26.75
2022-12-11T00:47:22.494Z,23.95
2022-12-11T00:49:50.148Z,24.33
2022-12-11T00:52:17.976Z,24.05
2022-12-11T00:54:44.870Z,25.38
2022-12-11T00:57:11.370Z,23.77
2022-12-11T00:59:37.959Z,24.20
2022-12-11T01:02:04.428Z,23.30
2022-12-11T01:04:31.004Z,25.20
2022-12-11T01:06:57.517Z,24.25
2022-12-11T01:09:42.713Z,23.27
2022-12-11T01:12:09.296Z,22.33
2022-12-11T01:14:35.773Z,24.38
2022-12-11T01:17:02.422Z,24.42
2022-12-11T01:19:29.008Z,24.15
2022-12-11T01:21:55.694Z,25.83
2022-12-11T01:24:22.204Z,24.88
2022-12-11T01:26:48.739Z,28.30
2022-12-11T01:29:15.287Z,25.92
2022-12-11T01:31:41.836Z,27.05
2022-12-11T01:34:08.376Z,27.95
2022-12-11T01:36:34.895Z,28.48
2022-12-11T01:39:01.558Z,27.75
2022-12-11T01:41:28.128Z,27.83
2022-12-11T01:44:02.267Z,30.10
2022-12-11T01:46:29.902Z,28.47
2022-12-11T01:48:56.678Z,29.50
2022-12-11T01:51:24.213Z,29.70
2022-12-11T01:53:56.196Z,25.70
2022-12-11T01:56:23.014Z,28.13
2022-12-11T01:58:53.939Z,29.83
2022-12-11T02:01:27.863Z,27.30
2022-12-11T02:03:55.882Z,26.50
2022-12-11T02:06:40.679Z,26.55
2022-12-11T02:09:10.820Z,26.17
2022-12-11T02:11:49.906Z,28.52
2022-12-11T02:14:50.753Z,30.52
2022-12-11T02:17:30.110Z,27.10
2022-12-11T02:20:24.192Z,28.35
2022-12-11T02:23:13.597Z,27.15
2022-12-11T02:26:05.058Z,25.90
2022-12-11T02:28:37.703Z,25.13
2022-12-11T02:31:30.410Z,28.15
2022-12-11T02:34:05.373Z,26.48
2022-12-11T02:36:36.507Z,26.38
2022-12-11T02:39:04.572Z,25.73
2022-12-11T02:41:32.425Z,25.45
2022-12-11T02:43:59.241Z,26.80
2022-12-11T02:46:26.228Z,26.42
2022-12-11T02:48:53.242Z,25.02
2022-12-11T02:51:31.047Z,24.13
2022-12-11T02:53:59.302Z,26.58
2022-12-11T02:56:31.145Z,24.52
2022-12-11T02:59:04.929Z,25.73
2022-12-11T03:01:31.525Z,24.98
2022-12-11T03:03:58.269Z,26.52
2022-12-11T03:06:31.263Z,23.63
2022-12-11T03:08:57.835Z,24.33
2022-12-11T03:11:24.324Z,26.13
2022-12-11T03:13:50.817Z,27.00
2022-12-11T03:16:30.787Z,26.17
2022-12-11T03:19:09.423Z,23.23
2022-12-11T03:21:51.750Z,24.67
2022-12-11T03:24:21.226Z,22.90
2022-12-11T03:26:56.694Z,22.70
2022-12-11T03:29:27.185Z,21.67
2022-12-11T03:31:58.187Z,21.75
2022-12-11T03:34:31.849Z,20.40
2022-12-11T03:37:00.129Z,20.92
2022-12-11T03:39:33.871Z,20.58
2022-12-11T03:42:03.558Z,18.85
2022-12-11T03:44:31.865Z,18.88
2022-12-11T03:47:00.474Z,18.88
2022-12-11T03:49:29.917Z,19.73
2022-12-11T03:51:58.218Z,19.08
2022-12-11T03:54:24.950Z,18.95
2022-12-11T03:56:54.223Z,19.48
2022-12-11T03:59:20.718Z,18.85
2022-12-11T04:01:47.486Z,18.33
2022-12-11T04:04:14.580Z,17.48
2022-12-11T04:06:41.304Z,17.27
2022-12-11T04:09:07.827Z,17.33
2022-12-11T04:11:34.364Z,15.60
2022-12-11T04:14:26.554Z,15.57
2022-12-11T04:16:53.530Z,15.40
2022-12-11T04:19:39.083Z,15.07
2022-12-11T04:22:24.072Z,15.05
2022-12-11T04:24:50.936Z,13.27
2022-12-11T04:27:38.568Z,14.00
2022-12-11T04:30:07.778Z,13.85
2022-12-11T04:32:34.349Z,14.23
2022-12-11T04:35:01.067Z,13.95
2022-12-11T04:37:28.263Z,14.45
2022-12-11T04:39:54.789Z,13.85
2022-12-11T04:42:21.293Z,13.40
2022-12-11T04:44:48.065Z,15.63
2022-12-11T04:47:14.583Z,15.00
2022-12-11T04:49:41.064Z,14.57
2022-12-11T04:52:07.652Z,13.18
2022-12-11T04:54:34.302Z,15.20
2022-12-11T04:57:01.001Z,14.65
2022-12-11T04:59:27.905Z,13.57
2022-12-11T05:01:54.616Z,14.75
2022-12-11T05:04:21.130Z,15.30
2022-12-11T05:06:49.840Z,14.77
2022-12-11T05:09:16.395Z,14.70
2022-12-11T05:11:42.876Z,13.45
2022-12-11T05:14:09.455Z,14.32
2022-12-11T05:16:35.957Z,16.02
2022-12-11T05:19:02.635Z,13.93
2022-12-11T05:21:34.853Z,14.65
2022-12-11T05:24:02.320Z,15.10
2022-12-11T05:26:28.907Z,15.20
2022-12-11T05:28:55.845Z,15.35
2022-12-11T05:31:24.505Z,16.30
2022-12-11T05:33:52.435Z,15.27
2022-12-11T05:36:20.372Z,15.20
2022-12-11T05:38:47.069Z,14.45
2022-12-11T05:41:15.871Z,13.65
2022-12-11T05:43:42.560Z,15.23
2022-12-11T05:46:12.189Z,16.40
2022-12-11T05:48:39.339Z,15.93
2022-12-11T05:51:08.366Z,16.40
2022-12-11T05:53:36.431Z,16.73
2022-12-11T05:56:08.688Z,16.52
2022-12-11T05:58:35.803Z,16.20
2022-12-11T06:01:02.888Z,15.88
2022-12-11T06:03:29.470Z,14.27
2022-12-11T06:05:55.925Z,15.05
2022-12-11T06:08:22.540Z,14.98
2022-12-11T06:10:49.912Z,15.50
2022-12-11T06:13:17.307Z,15.60
2022-12-11T06:15:43.853Z,14.85
2022-12-11T06:18:10.691Z,15.38
2022-12-11T06:20:37.210Z,15.98
2022-12-11T06:23:03.929Z,13.95
2022-12-11T06:25:31.368Z,15.35
2022-12-11T06:27:58.078Z,14.75
2022-12-11T06:30:39.086Z,14.98
2022-12-11T06:33:06.537Z,14.05
2022-12-11T06:35:38.739Z,15.43
2022-12-11T06:40:34.607Z,13.30
2022-12-11T06:43:01.167Z,14.63
2022-12-11T06:45:27.895Z,13.75
2022-12-11T06:47:54.645Z,14.40
2022-12-11T06:50:21.770Z,15.07
2022-12-11T06:52:48.317Z,13.88
2022-12-11T06:55:14.812Z,14.63
2022-12-11T06:57:41.377Z,14.77
2022-12-11T07:00:08.458Z,13.30
2022-12-11T07:02:35.257Z,14.07
2022-12-11T07:05:02.073Z,12.65
2022-12-11T07:07:29.074Z,13.50
2022-12-11T07:09:55.778Z,14.07
2022-12-11T07:12:22.498Z,13.60
2022-12-11T07:14:49.013Z,11.68
2022-12-11T07:17:15.980Z,11.73
2022-12-11T07:19:42.579Z,12.65
2022-12-11T07:22:09.162Z,10.57
2022-12-11T07:24:35.935Z,10.73
2022-12-11T07:27:02.603Z,11.20
2022-12-11T07:29:29.138Z,12.60
2022-12-11T07:31:55.782Z,12.82
2022-12-11T07:34:22.350Z,12.15
2022-12-11T07:36:48.878Z,11.40
2022-12-11T07:39:16.088Z,11.13
2022-12-11T07:41:43.140Z,11.52
2022-12-11T07:44:09.662Z,13.45
2022-12-11T07:46:36.150Z,13.60
2022-12-11T07:49:03.054Z,12.77
2022-12-11T07:51:32.080Z,12.85
2022-12-11T07:54:00.861Z,11.43
2022-12-11T07:56:28.645Z,11.55
2022-12-11T07:58:55.891Z,13.27
2022-12-11T08:01:26.199Z,13.68
2022-12-11T08:03:53.895Z,14.90
2022-12-11T08:06:24.396Z,16.48
2022-12-11T08:08:50.952Z,15.43
2022-12-11T08:11:17.455Z,14.52
2022-12-11T08:13:44.483Z,15.95
2022-12-11T08:16:13.719Z,16.35
2022-12-11T08:18:40.812Z,13.73
2022-12-11T08:21:13.489Z,12.88
2022-12-11T08:23:40.476Z,14.65
2022-12-11T08:26:09.096Z,15.20
2022-12-11T08:28:35.908Z,15.68
2022-12-11T08:31:04.953Z,16.48
2022-12-11T08:33:31.723Z,17.00
2022-12-11T08:35:58.602Z,19.25
2022-12-11T08:38:25.728Z,20.00
2022-12-11T08:40:52.377Z,19.92
2022-12-11T08:43:18.931Z,18.80
2022-12-11T08:45:46.838Z,18.10
2022-12-11T08:48:13.403Z,19.00
2022-12-11T08:50:39.878Z,19.60
2022-12-11T08:53:06.688Z,19.77
2022-12-11T08:55:34.016Z,20.58
2022-12-11T08:58:00.566Z,22.80
2022-12-11T09:00:27.073Z,20.42
2022-12-11T09:02:53.662Z,19.23
2022-12-11T09:05:20.204Z,20.48
2022-12-11T09:07:47.084Z,20.70
2022-12-11T09:10:13.710Z,20.98
2022-12-11T09:12:40.277Z,20.02
2022-12-11T09:15:07.228Z,19.75
2022-12-11T09:17:34.364Z,19.38
2022-12-11T09:20:01.080Z,21.05
2022-12-11T09:22:27.647Z,19.88
2022-12-11T09:24:54.127Z,21.52
2022-12-11T09:27:21.371Z,21.45
2022-12-11T09:29:47.964Z,19.23
2022-12-11T09:32:14.571Z,19.17
2022-12-11T09:34:41.086Z,21.10
2022-12-11T09:37:07.674Z,18.65
2022-12-11T09:39:34.177Z,19.58
2022-12-11T09:42:19.516Z,22.40
2022-12-11T09:44:57.876Z,20.17
2022-12-11T09:47:35.044Z,20.30
2022-12-11T09:50:11.031Z,20.50
2022-12-11T09:52:44.822Z,21.02
2022-12-11T09:55:20.174Z,20.63
2022-12-11T09:58:06.894Z,21.42
2022-12-11T10:00:38.596Z,20.35
2022-12-11T10:03:38.950Z,21.25
2022-12-11T10:06:30.392Z,20.52
2022-12-11T10:09:27.817Z,20.42
2022-12-11T10:12:12.714Z,21.77
2022-12-11T10:15:00.708Z,19.23
2022-12-11T10:17:34.692Z,18.45
2022-12-11T10:20:39.349Z,20.70
2022-12-11T10:23:15.615Z,22.35
2022-12-11T10:25:51.603Z,23.45
2022-12-11T10:28:20.211Z,23.42
2022-12-11T10:31:07.854Z,23.10
2022-12-11T10:33:41.871Z,23.05
2022-12-11T10:36:09.223Z,22.20
2022-12-11T10:38:41.063Z,21.02
2022-12-11T10:41:13.101Z,22.83
2022-12-11T10:43:46.063Z,21.20
2022-12-11T10:46:22.852Z,20.25
2022-12-11T10:48:53.804Z,22.38
2022-12-11T10:51:23.019Z,23.55
2022-12-11T10:54:02.635Z,22.98
2022-12-11T10:56:33.538Z,21.80
2022-12-11T10:59:00.992Z,22.33
2022-12-11T11:01:29.345Z,23.20
2022-12-11T11:04:03.471Z,24.17
2022-12-11T11:06:30.013Z,21.67
2022-12-11T11:08:58.760Z,21.30
2022-12-11T11:11:27.167Z,23.42
2022-12-11T11:14:10.822Z,21.08
2022-12-11T11:16:38.400Z,23.33
2022-12-11T11:19:05.330Z,22.88
2022-12-11T11:21:33.996Z,19.85
2022-12-11T11:24:00.486Z,22.45
2022-12-11T11:26:43.561Z,23.00
2022-12-11T11:29:25.651Z,19.05
2022-12-11T11:31:52.440Z,20.55
2022-12-11T11:34:26.077Z,20.38
2022-12-11T11:36:59.684Z,17.98
2022-12-11T11:39:40.407Z,21.50
2022-12-11T11:42:23.444Z,18.58
2022-12-11T11:44:57.377Z,17.80
2022-12-11T11:47:27.753Z,18.88
2022-12-11T11:50:06.689Z,17.35
2022-12-11T11:52:45.434Z,15.35
2022-12-11T11:55:22.632Z,14.60
2022-12-11T11:58:01.062Z,15.75
2022-12-11T12:00:33.609Z,16.33
2022-12-11T12:03:03.780Z,18.70
2022-12-11T12:05:47.049Z,19.85
2022-12-11T12:08:30.405Z,21.70
2022-12-11T12:11:11.081Z,18.77
2022-12-11T12:13:49.509Z,19.90
2022-12-11T12:16:52.536Z,23.52
2022-12-11T12:19:31.763Z,21.73
2022-12-11T12:22:22.334Z,23.17
2022-12-11T12:25:07.221Z,21.02
2022-12-11T12:27:55.533Z,21.92
2022-12-11T12:30:23.652Z,22.30
2022-12-11T12:33:29.011Z,23.48
2022-12-11T12:36:07.106Z,21.30
2022-12-11T12:38:47.379Z,21.70
2022-12-11T12:41:25.363Z,20.70
2022-12-11T12:44:16.567Z,21.58
2022-12-11T12:46:55.747Z,21.67
2022-12-11T12:49:34.808Z,21.38
2022-12-11T12:52:02.276Z,21.40
2022-12-11T12:54:29.365Z,21.52
2022-12-11T12:56:56.810Z,20.13
2022-12-11T12:59:27.874Z,20.02
2022-12-11T13:02:00.792Z,20.80
2022-12-11T13:04:56.033Z,14.73
2022-12-11T13:07:32.722Z,14.02
2022-12-11T13:10:22.924Z,21.58
2022-12-11T13:12:49.894Z,21.15
2022-12-11T13:15:42.652Z,22.48
2022-12-11T13:18:34.837Z,22.35
2022-12-11T13:21:03.208Z,21.08
2022-12-11T13:23:34.439Z,21.70
2022-12-11T13:26:04.987Z,20.10
2022-12-11T13:28:48.210Z,19.70
2022-12-11T13:31:14.859Z,20.45
2022-12-11T13:33:46.331Z,20.88
2022-12-11T13:36:17.810Z,20.15
2022-12-11T13:38:50.359Z,21.27
2022-12-11T13:41:18.632Z,21.63
2022-12-11T13:43:47.524Z,22.80
2022-12-11T13:46:16.019Z,21.45
2022-12-11T13:49:11.637Z,20.95
2022-12-11T13:51:38.236Z,20.40
2022-12-11T13:54:04.670Z,19.20
2022-12-11T13:56:31.231Z,19.17
2022-12-11T13:58:57.762Z,18.05
2022-12-11T14:01:35.013Z,18.00
2022-12-11T14:04:05.446Z,17.65
2022-12-11T14:06:33.540Z,19.52
2022-12-11T14:09:01.642Z,19.52
2022-12-11T14:11:34.637Z,17.58
2022-12-11T14:14:03.562Z,20.25
2022-12-11T14:16:30.542Z,18.48
2022-12-11T14:19:04.282Z,18.02
2022-12-11T14:21:30.979Z,17.15
2022-12-11T14:24:03.658Z,15.63
2022-12-11T14:26:32.277Z,16.35
2022-12-11T14:28:59.083Z,16.35
2022-12-11T14:31:43.467Z,17.10
2022-12-11T14:34:17.878Z,18.02
2022-12-11T14:36:46.642Z,17.80
2022-12-11T14:39:24.640Z,18.27
2022-12-11T14:41:57.607Z,18.63
2022-12-11T14:44:26.134Z,17.85
2022-12-11T14:46:55.747Z,17.10
2022-12-11T14:49:31.056Z,16.08
2022-12-11T14:51:58.495Z,16.25
2022-12-11T14:54:46.909Z,17.95
2022-12-11T14:57:22.816Z,14.27
2022-12-11T14:59:50.628Z,14.45
2022-12-11T15:02:27.790Z,16.00
2022-12-11T15:05:18.315Z,15.35
2022-12-11T15:08:01.191Z,15.07
2022-12-11T15:10:41.333Z,14.43
2022-12-11T15:13:08.740Z,15.27
2022-12-11T15:15:54.734Z,13.55
2022-12-11T15:18:26.452Z,15.23
2022-12-11T15:20:55.113Z,13.43
2022-12-11T15:23:21.794Z,14.20
2022-12-11T15:25:52.931Z,14.38
2022-12-11T15:28:33.897Z,15.88
2022-12-11T15:31:04.192Z,15.00
2022-12-11T15:33:34.242Z,15.32
2022-12-11T15:36:06.051Z,15.23
2022-12-11T15:38:39.458Z,14.98
2022-12-11T15:41:06.678Z,14.52
2022-12-11T15:43:36.168Z,16.60
2022-12-11T15:46:03.920Z,14.90
2022-12-11T15:48:30.488Z,14.15
2022-12-11T15:50:57.129Z,15.55
2022-12-11T15:53:23.822Z,17.67
2022-12-11T15:55:50.928Z,16.05
2022-12-11T15:58:21.953Z,18.55
2022-12-11T16:00:48.591Z,13.40
2022-12-11T16:03:17.698Z,11.10
2022-12-11T16:05:44.695Z,11.65
2022-12-11T16:08:17.088Z,10.77
2022-12-11T16:10:45.592Z,8.43
2022-12-11T16:13:12.844Z,8.50
2022-12-11T16:15:42.085Z,10.40
2022-12-11T16:18:10.712Z,9.00
2022-12-11T16:20:38.093Z,10.98
2022-12-11T16:23:05.307Z,12.55
2022-12-11T16:25:32.736Z,12.05
2022-12-11T16:28:01.392Z,14.20
2022-12-11T16:30:29.154Z,13.65
2022-12-11T16:32:55.827Z,16.05
2022-12-11T16:35:22.596Z,15.27
2022-12-11T16:37:50.668Z,15.02
2022-12-11T16:40:18.457Z,14.02
2022-12-11T16:42:45.268Z,12.93
2022-12-11T16:45:25.642Z,15.15
2022-12-11T16:47:52.671Z,15.50
2022-12-11T16:50:19.240Z,16.15
2022-12-11T16:52:46.043Z,16.23
2022-12-11T16:55:13.640Z,17.92
2022-12-11T16:57:40.510Z,16.50
2022-12-11T17:00:09.574Z,17.02
2022-12-11T17:02:36.641Z,13.95
2022-12-11T17:05:03.433Z,14.80
2022-12-11T17:07:32.210Z,14.10
2022-12-11T17:09:58.833Z,11.48
2022-12-11T17:12:27.942Z,13.13
2022-12-11T17:14:55.937Z,12.48
2022-12-11T17:17:22.594Z,12.77
2022-12-11T17:19:49.136Z,12.52
2022-12-11T17:22:15.704Z,12.88
2022-12-11T17:24:42.208Z,12.65
2022-12-11T17:27:08.764Z,13.30
2022-12-11T17:29:35.257Z,14.43
2022-12-11T17:32:03.329Z,13.57
2022-12-11T17:34:36.125Z,13.50
2022-12-11T17:37:04.517Z,13.65
2022-12-11T17:39:31.255Z,14.13
2022-12-11T17:41:57.872Z,15.98
2022-12-11T17:44:26.457Z,17.73
2022-12-11T17:46:53.187Z,19.30
2022-12-11T17:49:19.905Z,19.35
2022-12-11T17:51:46.584Z,19.67
2022-12-11T17:54:13.278Z,20.98
2022-12-11T17:56:40.574Z,23.08
2022-12-11T17:59:07.232Z,21.92
2022-12-11T18:01:33.945Z,23.08
2022-12-11T18:04:01.889Z,22.08
2022-12-11T18:06:28.933Z,23.40
2022-12-11T18:08:55.539Z,21.35
2022-12-11T18:11:22.215Z,22.02
2022-12-11T18:13:49.571Z,22.77
2022-12-11T18:16:28.551Z,21.45
2022-12-11T18:18:56.474Z,20.23
2022-12-11T18:21:26.882Z,19.60
2022-12-11T18:23:53.735Z,20.05
2022-12-11T18:26:20.886Z,21.55
2022-12-11T18:28:48.218Z,22.30
2022-12-11T18:31:14.910Z,23.00
2022-12-11T18:33:43.840Z,22.00
2022-12-11T18:36:11.096Z,21.13
2022-12-11T18:38:37.947Z,20.58
2022-12-11T18:41:05.818Z,22.20
2022-12-11T18:43:32.453Z,20.92
2022-12-11T18:45:59.147Z,21.05
2022-12-11T18:48:25.751Z,20.88
2022-12-11T18:50:53.419Z,20.80
2022-12-11T18:53:20.050Z,22.27
2022-12-11T18:55:48.142Z,19.92
2022-12-11T18:58:18.068Z,22.00
2022-12-11T19:00:45.326Z,20.73
2022-12-11T19:03:13.715Z,21.30
2022-12-11T19:05:42.535Z,20.85
2022-12-11T19:08:10.230Z,20.52
2022-12-11T19:10:44.937Z,21.77
2022-12-11T19:13:11.775Z,20.20
2022-12-11T19:15:43.311Z,22.08
2022-12-11T19:18:11.049Z,20.17
2022-12-11T19:20:57.709Z,21.50
2022-12-11T19:23:31.877Z,21.90
2022-12-11T19:25:58.688Z,20.55
2022-12-11T19:28:25.202Z,21.73
2022-12-11T19:30:51.748Z,19.95
2022-12-11T19:33:18.271Z,19.88
2022-12-11T19:35:45.038Z,23.50
2022-12-11T19:38:13.034Z,21.75
2022-12-11T19:40:43.966Z,21.40
2022-12-11T19:43:11.148Z,21.35
2022-12-11T19:45:37.684Z,21.65
2022-12-11T19:48:04.667Z,22.35
2022-12-11T19:50:31.760Z,21.17
2022-12-11T19:52:58.293Z,22.33
2022-12-11T19:55:24.820Z,23.33
2022-12-11T19:57:51.491Z,21.85
2022-12-11T20:00:18.852Z,21.00
2022-12-11T20:02:45.416Z,22.85
2022-12-11T20:05:12.968Z,21.75
2022-12-11T20:07:40.144Z,22.58
2022-12-11T20:10:07.636Z,21.48
2022-12-11T20:12:34.131Z,22.95
2022-12-11T20:15:00.624Z,22.08
2022-12-11T20:17:27.182Z,23.45
2022-12-11T20:19:53.712Z,21.80
2022-12-11T20:22:20.237Z,22.33
2022-12-11T20:24:46.839Z,23.95
2022-12-11T20:27:13.434Z,23.58
2022-12-11T20:29:40.088Z,22.20
2022-12-11T20:32:07.678Z,21.98
2022-12-11T20:34:34.380Z,22.35
2022-12-11T20:37:02.168Z,22.17
2022-12-11T20:39:29.200Z,23.90
2022-12-11T20:41:55.779Z,23.55
2022-12-11T20:44:22.464Z,22.65
2022-12-11T20:46:49.011Z,23.08
2022-12-11T20:49:15.564Z,21.52
2022-12-11T20:51:42.244Z,23.20
2022-12-11T20:54:08.864Z,22.92
2022-12-11T20:56:36.134Z,21.77
2022-12-11T20:59:02.702Z,22.55
2022-12-11T21:01:31.283Z,22.60
2022-12-11T21:03:58.551Z,22.67
2022-12-11T21:06:26.780Z,22.30
2022-12-11T21:08:53.539Z,23.00
2022-12-11T21:11:20.666Z,22.70
2022-12-11T21:13:47.240Z,24.75
2022-12-11T21:16:13.893Z,24.38
2022-12-11T21:18:41.853Z,24.85
2022-12-11T21:21:08.410Z,25.48
2022-12-11T21:23:34.924Z,23.45
2022-12-11T21:26:01.693Z,22.88
2022-12-11T21:28:33.577Z,25.60
2022-12-11T21:31:06.747Z,23.65
2022-12-11T21:33:33.744Z,22.20
2022-12-11T21:36:00.623Z,22.20
2022-12-11T21:38:28.139Z,23.35
2022-12-11T21:40:55.755Z,22.73
2022-12-11T21:43:22.590Z,23.58
2022-12-11T21:46:04.899Z,21.33
2022-12-11T21:48:31.774Z,21.02
2022-12-11T21:51:06.333Z,22.40
2022-12-11T21:53:32.933Z,22.92
2022-12-11T21:55:59.450Z,22.33
2022-12-11T21:58:26.240Z,23.02
2022-12-11T22:00:52.906Z,22.05
2022-12-11T22:03:19.649Z,23.45
2022-12-11T22:05:46.118Z,21.05
2022-12-11T22:08:12.625Z,20.77
2022-12-11T22:10:39.183Z,20.90
2022-12-11T22:13:05.669Z,20.15
2022-12-11T22:15:32.246Z,22.73
2022-12-11T22:17:58.799Z,20.23
2022-12-11T22:20:25.324Z,19.42
2022-12-11T22:22:51.794Z,20.23
2022-12-11T22:25:18.291Z,16.92
2022-12-11T22:27:44.767Z,17.65
2022-12-11T22:30:12.130Z,15.13
2022-12-11T22:32:38.591Z,12.75
2022-12-11T22:35:05.492Z,14.32
2022-12-11T22:37:32.034Z,13.35
2022-12-11T22:39:58.582Z,16.23
2022-12-11T22:42:25.101Z,17.98
2022-12-11T22:44:51.644Z,18.50
2022-12-11T22:47:18.363Z,19.67
2022-12-11T22:49:44.907Z,17.33
2022-12-11T22:52:11.417Z,18.10
2022-12-11T22:54:39.675Z,16.52
2022-12-11T22:57:06.167Z,15.88
2022-12-11T22:59:32.767Z,15.38
2022-12-11T23:01:59.671Z,15.20
2022-12-11T23:04:26.439Z,16.15
2022-12-11T23:06:52.941Z,14.48
2022-12-11T23:09:19.585Z,13.68
2022-12-11T23:11:46.050Z,11.98
2022-12-11T23:14:17.099Z,12.07
2022-12-11T23:16:43.940Z,12.85
2022-12-11T23:19:11.713Z,12.85
2022-12-11T23:21:39.257Z,14.68
2022-12-11T23:24:06.522Z,12.82
2022-12-11T23:26:33.116Z,14.18
2022-12-11T23:28:59.961Z,16.95
2022-12-11T23:31:26.933Z,16.08
2022-12-11T23:33:53.755Z,19.02
2022-12-11T23:36:20.285Z,18.88
2022-12-11T23:38:52.616Z,17.95
2022-12-11T23:41:21.090Z,21.10
2022-12-11T23:43:47.587Z,20.83
2022-12-11T23:46:16.508Z,20.73
2022-12-11T23:48:43.082Z,21.10
2022-12-11T23:51:14.175Z,18.73
2022-12-11T23:53:41.378Z,19.95
2022-12-11T23:56:18.060Z,21.20
2022-12-11T23:58:44.708Z,21.13
